createdAt,value
2022-12-04T00:01:29.979Z,9.43
2022-12-04T00:04:01.223Z,8.95
2022-12-04T00:06:29.694Z,10.48
2022-12-04T00:08:57.759Z,8.80
2022-12-04T00:11:30.056Z,10.57
2022-12-04T00:14:04.815Z,9.65
2022-12-04T00:16:33.631Z,10.88
2022-12-04T00:19:00.602Z,11.57
2022-12-04T00:21:27.540Z,9.18
2022-12-04T00:23:54.842Z,9.90
2022-12-04T00:26:27.053Z,9.45
2022-12-04T00:28:55.522Z,9.60
2022-12-04T00:31:29.714Z,10.73
2022-12-04T00:33:57.366Z,12.00
2022-12-04T00:36:28.391Z,10.10
2022-12-04T00:38:55.812Z,8.95
2022-12-04T00:41:26.124Z,9.90
2022-12-04T00:43:53.651Z,9.32
2022-12-04T00:46:21.966Z,10.52
2022-12-04T00:48:49.934Z,10.23
2022-12-04T00:51:23.688Z,9.15
2022-12-04T00:53:52.836Z,9.82
2022-12-04T00:56:27.760Z,9.38
2022-12-04T00:59:01.044Z,9.30
2022-12-04T01:01:30.041Z,10.10
2022-12-04T01:03:57.339Z,10.80
2022-12-04T01:06:33.308Z,10.40
2022-12-04T01:09:04.964Z,9.80
2022-12-04T01:11:33.181Z,10.30
2022-12-04T01:14:01.010Z,9.00
2022-12-04T01:16:34.687Z,9.98
2022-12-04T01:19:03.214Z,10.48
2022-12-04T01:21:30.165Z,10.75
2022-12-04T01:23:58.922Z,9.85
2022-12-04T01:26:27.066Z,9.95
2022-12-04T01:28:54.100Z,8.20
2022-12-04T01:31:22.111Z,9.05
2022-12-04T01:33:50.727Z,9.98
2022-12-04T01:36:24.821Z,9.15
2022-12-04T01:38:52.673Z,8.50
2022-12-04T01:41:29.122Z,9.60
2022-12-04T01:44:21.171Z,9.93
2022-12-04T01:46:57.884Z,9.40
2022-12-04T01:49:48.561Z,10.25
2022-12-04T01:52:26.305Z,8.10
2022-12-04T01:55:01.098Z,9.95
2022-12-04T01:57:32.484Z,10.05
2022-12-04T02:00:11.362Z,9.85
2022-12-04T02:02:47.492Z,10.02
2022-12-04T02:05:20.886Z,10.48
2022-12-04T02:07:55.570Z,10.32
2022-12-04T02:10:54.459Z,9.80
2022-12-04T02:14:01.819Z,10.60
2022-12-04T02:17:11.629Z,8.63
2022-12-04T02:20:29.740Z,9.50
2022-12-04T02:23:47.009Z,10.60
2022-12-04T02:26:39.946Z,8.05
2022-12-04T02:29:36.405Z,9.30
2022-12-04T02:33:00.670Z,8.90
2022-12-04T02:35:47.962Z,9.45
2022-12-04T02:38:32.477Z,9.65
2022-12-04T02:41:28.739Z,8.55
2022-12-04T02:44:15.266Z,9.95
2022-12-04T02:46:53.957Z,11.32
2022-12-04T02:49:46.131Z,10.02
2022-12-04T02:52:24.219Z,8.48
2022-12-04T02:55:09.200Z,9.32
2022-12-04T02:57:53.082Z,9.77
2022-12-04T03:00:21.932Z,10.10
2022-12-04T03:03:13.636Z,9.50
2022-12-04T03:06:02.456Z,8.90
2022-12-04T03:08:45.614Z,9.00
2022-12-04T03:11:12.567Z,9.10
2022-12-04T03:13:55.008Z,8.70
2022-12-04T03:16:39.275Z,9.13
2022-12-04T03:19:21.354Z,9.30
2022-12-04T03:22:04.911Z,8.70
2022-12-04T03:24:45.371Z,8.70
2022-12-04T03:27:54.105Z,9.43
2022-12-04T03:30:23.434Z,8.38
2022-12-04T03:33:10.375Z,8.70
2022-12-04T03:36:09.851Z,7.95
2022-12-04T03:38:57.764Z,8.93
2022-12-04T03:42:01.970Z,8.52
2022-12-04T03:44:48.718Z,9.02
2022-12-04T03:47:29.961Z,8.23
2022-12-04T03:50:30.580Z,8.13
2022-12-04T03:53:30.178Z,9.50
2022-12-04T03:56:16.239Z,9.00
2022-12-04T03:58:52.760Z,8.90
2022-12-04T04:01:31.986Z,7.75
2022-12-04T04:04:04.337Z,9.30
2022-12-04T04:06:48.715Z,8.93
2022-12-04T04:09:25.026Z,9.68
2022-12-04T04:12:12.891Z,8.70
2022-12-04T04:15:19.981Z,9.60
2022-12-04T04:18:09.420Z,8.85
2022-12-04T04:21:15.204Z,8.82
2022-12-04T04:24:28.360Z,8.80
2022-12-04T04:26:58.896Z,9.27
2022-12-04T04:29:27.137Z,8.23
2022-12-04T04:32:25.530Z,8.45
2022-12-04T04:35:21.693Z,8.38
2022-12-04T04:38:28.513Z,8.05
2022-12-04T04:41:19.429Z,9.50
2022-12-04T04:44:27.721Z,9.40
2022-12-04T04:47:06.001Z,7.82
2022-12-04T04:49:38.950Z,8.80
2022-12-04T04:52:06.440Z,9.25
2022-12-04T04:54:36.824Z,9.32
2022-12-04T04:57:03.829Z,9.60
2022-12-04T04:59:30.829Z,9.00
2022-12-04T05:01:58.328Z,8.50
2022-12-04T05:04:25.273Z,9.68
2022-12-04T05:06:52.197Z,9.52
2022-12-04T05:09:19.045Z,9.50
2022-12-04T05:11:45.921Z,9.35
2022-12-04T05:14:12.778Z,8.95
2022-12-04T05:16:41.561Z,8.40
2022-12-04T05:19:27.331Z,8.43
2022-12-04T05:21:54.265Z,8.40
2022-12-04T05:24:21.097Z,8.88
2022-12-04T05:26:47.918Z,8.20
2022-12-04T05:29:14.846Z,8.00
2022-12-04T05:31:41.785Z,7.45
2022-12-04T05:34:08.710Z,8.18
2022-12-04T05:36:35.586Z,8.52
2022-12-04T05:39:02.475Z,8.60
2022-12-04T05:41:29.310Z,7.75
2022-12-04T05:43:56.159Z,7.68
2022-12-04T05:46:23.199Z,8.82
2022-12-04T05:48:50.090Z,9.48
2022-12-04T05:51:17.123Z,7.63
2022-12-04T05:53:44.052Z,8.60
2022-12-04T05:56:11.003Z,8.77
2022-12-04T05:58:38.867Z,6.65
2022-12-04T06:01:20.354Z,6.53
2022-12-04T06:03:47.615Z,7.72
2022-12-04T06:06:22.883Z,7.97
2022-12-04T06:08:57.711Z,8.45
2022-12-04T06:11:33.663Z,7.60
2022-12-04T06:14:04.502Z,8.55
2022-12-04T06:16:39.199Z,7.53
2022-12-04T06:19:18.379Z,7.78
2022-12-04T06:21:49.303Z,7.90
2022-12-04T06:24:24.205Z,9.02
2022-12-04T06:27:26.337Z,7.78
2022-12-04T06:29:45.256Z,7.80
2022-12-04T06:32:15.228Z,8.70
2022-12-04T06:34:44.843Z,8.43
2022-12-04T06:37:11.768Z,7.75
2022-12-04T06:39:38.619Z,8.95
2022-12-04T06:42:05.563Z,8.23
2022-12-04T06:44:32.541Z,7.97
2022-12-04T06:47:01.202Z,7.63
2022-12-04T06:49:28.504Z,8.27
2022-12-04T06:51:55.341Z,7.57
2022-12-04T06:54:22.935Z,8.35
2022-12-04T06:56:50.322Z,8.43
2022-12-04T06:59:17.408Z,9.07
2022-12-04T07:01:44.337Z,8.77
2022-12-04T07:04:11.288Z,7.28
2022-12-04T07:06:39.741Z,8.98
2022-12-04T07:09:17.855Z,8.02
2022-12-04T07:11:45.944Z,8.27
2022-12-04T07:14:14.318Z,8.52
2022-12-04T07:16:42.877Z,8.90
2022-12-04T07:19:13.741Z,8.77
2022-12-04T07:21:42.232Z,9.68
2022-12-04T07:24:16.910Z,9.82
2022-12-04T07:26:44.638Z,8.52
2022-12-04T07:29:11.617Z,8.03
2022-12-04T07:31:38.970Z,9.63
2022-12-04T07:34:05.944Z,8.20
2022-12-04T07:36:33.073Z,9.18
2022-12-04T07:39:00.017Z,9.32
2022-12-04T07:41:26.880Z,8.93
2022-12-04T07:43:54.677Z,8.98
2022-12-04T07:46:27.150Z,9.10
2022-12-04T07:48:59.264Z,8.23
2022-12-04T07:51:29.554Z,9.05
2022-12-04T07:54:03.542Z,8.75
2022-12-04T07:56:31.683Z,9.27
2022-12-04T07:59:00.024Z,10.20
2022-12-04T08:01:27.319Z,9.30
2022-12-04T08:03:58.235Z,9.27
2022-12-04T08:06:28.581Z,9.77
2022-12-04T08:08:57.143Z,7.75
2022-12-04T08:11:28.542Z,8.70
2022-12-04T08:14:05.725Z,8.57
2022-12-04T08:16:33.546Z,7.97
2022-12-04T08:19:01.512Z,8.23
2022-12-04T08:21:31.649Z,8.43
2022-12-04T08:24:02.487Z,9.15
2022-12-04T08:26:33.326Z,7.97
2022-12-04T08:29:01.676Z,9.23
2022-12-04T08:31:32.909Z,9.00
2022-12-04T08:34:05.889Z,8.75
2022-12-04T08:36:34.730Z,7.97
2022-12-04T08:39:01.807Z,9.73
2022-12-04T08:41:28.992Z,9.50
2022-12-04T08:43:56.786Z,8.60
2022-12-04T08:46:27.701Z,7.85
2022-12-04T08:48:55.868Z,7.43
2022-12-04T08:51:31.375Z,8.10
2022-12-04T08:54:03.270Z,8.10
2022-12-04T08:56:32.213Z,7.37
2022-12-04T08:59:00.669Z,8.03
2022-12-04T09:03:58.762Z,7.23
2022-12-04T09:06:26.347Z,8.57
2022-12-04T09:08:57.559Z,8.47
2022-12-04T09:11:28.231Z,9.10
2022-12-04T09:13:55.920Z,7.93
2022-12-04T09:16:25.303Z,9.37
2022-12-04T09:18:52.938Z,7.07
2022-12-04T09:21:23.429Z,8.47
2022-12-04T09:23:51.331Z,8.20
2022-12-04T09:26:32.823Z,7.67
2022-12-04T09:29:04.639Z,7.57
2022-12-04T09:31:33.834Z,7.10
2022-12-04T09:34:02.421Z,6.63
2022-12-04T09:36:30.191Z,7.00
2022-12-04T09:38:58.560Z,7.00
2022-12-04T09:41:57.585Z,6.97
2022-12-04T09:44:43.491Z,7.30
2022-12-04T09:47:36.988Z,7.40
2022-12-04T09:50:39.992Z,6.53
2022-12-04T09:53:25.545Z,7.00
2022-12-04T09:56:05.541Z,7.13
2022-12-04T09:59:14.359Z,9.87
2022-12-04T10:01:56.360Z,9.10
2022-12-04T10:04:23.454Z,8.50
2022-12-04T10:07:28.639Z,7.73
2022-12-04T10:10:29.985Z,6.53
2022-12-04T10:13:15.831Z,7.90
2022-12-04T10:16:11.564Z,6.43
2022-12-04T10:19:06.361Z,6.40
2022-12-04T10:22:03.597Z,6.33
2022-12-04T10:24:41.703Z,6.00
2022-12-04T10:27:30.784Z,6.33
2022-12-04T10:30:16.617Z,6.20
2022-12-04T10:32:46.558Z,6.80
2022-12-04T10:35:28.569Z,6.83
2022-12-04T10:38:38.469Z,6.70
2022-12-04T10:41:40.418Z,6.60
2022-12-04T10:44:18.738Z,6.20
2022-12-04T10:46:46.721Z,7.07
2022-12-04T10:49:36.147Z,5.83
2022-12-04T10:52:05.007Z,7.83
2022-12-04T10:54:52.006Z,6.63
2022-12-04T10:57:19.014Z,6.67
2022-12-04T10:59:56.252Z,6.83
2022-12-04T11:02:33.816Z,6.70
2022-12-04T11:05:35.688Z,7.73
2022-12-04T11:08:07.466Z,7.57
2022-12-04T11:10:39.719Z,7.30
2022-12-04T11:13:17.618Z,7.33
2022-12-04T11:15:55.733Z,7.43
2022-12-04T11:18:31.314Z,6.80
2022-12-04T11:21:05.159Z,6.83
2022-12-04T11:23:54.560Z,7.10
2022-12-04T11:26:42.362Z,6.90
2022-12-04T11:29:17.759Z,6.53
2022-12-04T11:31:55.086Z,7.23
2022-12-04T11:34:35.843Z,7.30
2022-12-04T11:37:04.992Z,6.73
2022-12-04T11:39:41.827Z,6.57
2022-12-04T11:42:26.350Z,7.10
2022-12-04T11:45:02.167Z,7.83
2022-12-04T11:47:33.453Z,6.67
2022-12-04T11:50:29.798Z,6.90
2022-12-04T11:53:17.042Z,6.60
2022-12-04T11:56:22.439Z,7.83
2022-12-04T11:59:16.763Z,6.97
2022-12-04T12:02:09.063Z,7.57
2022-12-04T12:05:26.832Z,6.60
2022-12-04T12:08:34.347Z,6.57
2022-12-04T12:11:29.993Z,6.90
2022-12-04T12:15:02.149Z,8.30
2022-12-04T12:17:46.731Z,7.60
2022-12-04T12:20:36.758Z,7.53
2022-12-04T12:23:56.307Z,7.80
2022-12-04T12:26:55.027Z,7.93
2022-12-04T12:30:04.100Z,8.60
2022-12-04T12:33:04.575Z,6.30
2022-12-04T12:35:47.789Z,8.33
2022-12-04T12:38:32.836Z,8.37
2022-12-04T12:41:12.810Z,8.23
2022-12-04T12:43:46.997Z,8.03
2022-12-04T12:46:34.477Z,8.30
2022-12-04T12:49:25.388Z,7.20
2022-12-04T12:52:27.393Z,7.70
2022-12-04T12:55:18.335Z,7.77
2022-12-04T12:57:59.288Z,7.83
2022-12-04T13:00:30.988Z,7.50
2022-12-04T13:03:25.965Z,7.67
2022-12-04T13:06:03.513Z,10.77
2022-12-04T13:08:52.601Z,9.00
2022-12-04T13:11:26.640Z,9.37
2022-12-04T13:14:02.205Z,9.57
2022-12-04T13:16:53.925Z,9.40
2022-12-04T13:19:43.080Z,9.60
2022-12-04T13:22:46.585Z,9.30
2022-12-04T13:26:20.005Z,10.00
2022-12-04T13:29:27.857Z,10.50
2022-12-04T13:32:46.108Z,9.03
2022-12-04T13:35:58.577Z,9.60
2022-12-04T13:39:32.937Z,7.93
2022-12-04T13:42:06.229Z,10.33
2022-12-04T13:44:35.577Z,8.90
2022-12-04T13:47:08.386Z,9.27
2022-12-04T13:49:42.017Z,10.27
2022-12-04T13:52:40.763Z,10.10
2022-12-04T13:55:38.683Z,10.33
2022-12-04T13:58:11.392Z,9.67
2022-12-04T14:00:43.702Z,8.70
2022-12-04T14:03:35.834Z,10.30
2022-12-04T14:06:19.943Z,9.90
2022-12-04T14:08:47.306Z,10.70
2022-12-04T14:11:19.591Z,8.67
2022-12-04T14:13:56.917Z,10.27
2022-12-04T14:16:39.875Z,8.87
2022-12-04T14:19:08.771Z,9.47
2022-12-04T14:21:47.362Z,10.03
2022-12-04T14:24:39.237Z,10.57
2022-12-04T14:27:41.945Z,10.13
2022-12-04T14:30:39.033Z,10.13
2022-12-04T14:33:22.364Z,9.90
2022-12-04T14:36:00.796Z,10.60
2022-12-04T14:38:27.936Z,11.23
2022-12-04T14:40:58.207Z,9.60
2022-12-04T14:43:37.996Z,10.87
2022-12-04T14:46:46.595Z,11.10
2022-12-04T14:50:30.866Z,11.33
2022-12-04T14:53:35.807Z,10.00
2022-12-04T14:56:48.454Z,11.07
2022-12-04T14:59:40.515Z,9.83
2022-12-04T15:02:27.125Z,10.47
2022-12-04T15:04:54.611Z,9.90
2022-12-04T15:07:31.545Z,11.10
2022-12-04T15:10:21.397Z,10.97
2022-12-04T15:12:54.589Z,10.57
2022-12-04T15:15:29.009Z,10.80
2022-12-04T15:18:03.684Z,10.90
2022-12-04T15:20:48.601Z,11.13
2022-12-04T15:23:41.594Z,10.30
2022-12-04T15:26:24.615Z,9.90
2022-12-04T15:29:01.303Z,10.73
2022-12-04T15:31:35.128Z,12.53
2022-12-04T15:34:24.860Z,9.87
2022-12-04T15:37:07.556Z,12.33
2022-12-04T15:39:37.979Z,10.53
2022-12-04T15:42:24.344Z,11.73
2022-12-04T15:45:03.309Z,11.97
2022-12-04T15:47:58.617Z,12.33
2022-12-04T15:50:30.656Z,11.03
2022-12-04T15:53:20.076Z,13.17
2022-12-04T15:55:56.211Z,12.90
2022-12-04T15:58:40.009Z,13.87
2022-12-04T16:01:13.099Z,14.33
2022-12-04T16:03:52.309Z,13.10
2022-12-04T16:06:33.437Z,14.07
2022-12-04T16:09:23.997Z,12.97
2022-12-04T16:12:17.078Z,12.13
2022-12-04T16:14:43.992Z,12.20
2022-12-04T16:17:13.532Z,12.50
2022-12-04T16:19:42.802Z,12.30
2022-12-04T16:22:24.377Z,12.80
2022-12-04T16:24:51.641Z,11.73
2022-12-04T16:27:23.488Z,12.20
2022-12-04T16:29:52.382Z,13.33
2022-12-04T16:32:32.012Z,11.73
2022-12-04T16:35:00.652Z,12.67
2022-12-04T16:37:29.861Z,12.60
2022-12-04T16:39:58.319Z,13.07
2022-12-04T16:42:29.248Z,14.23
2022-12-04T16:44:56.698Z,11.97
2022-12-04T16:47:23.911Z,11.77
2022-12-04T16:49:53.207Z,13.53
2022-12-04T16:52:21.129Z,12.30
2022-12-04T16:54:48.241Z,11.40
2022-12-04T16:57:15.143Z,14.03
2022-12-04T16:59:44.113Z,12.73
2022-12-04T17:02:26.626Z,12.60
2022-12-04T17:04:57.560Z,11.67
2022-12-04T17:07:25.414Z,12.30
2022-12-04T17:09:52.250Z,13.77
2022-12-04T17:12:19.107Z,14.43
2022-12-04T17:14:45.981Z,12.90
2022-12-04T17:17:12.838Z,12.60
2022-12-04T17:19:39.819Z,14.50
2022-12-04T17:22:07.801Z,12.77
2022-12-04T17:24:36.766Z,13.57
2022-12-04T17:27:06.230Z,13.40
2022-12-04T17:29:33.147Z,13.90
2022-12-04T17:32:00.033Z,12.00
2022-12-04T17:34:26.959Z,13.50
2022-12-04T17:36:53.947Z,12.03
2022-12-04T17:39:20.835Z,12.53
2022-12-04T17:41:47.763Z,13.67
2022-12-04T17:44:14.630Z,14.60
2022-12-04T17:46:41.644Z,13.60
2022-12-04T17:49:08.534Z,13.67
2022-12-04T17:51:35.723Z,13.13
2022-12-04T17:54:03.563Z,14.00
2022-12-04T17:56:31.174Z,14.10
2022-12-04T17:58:58.844Z,14.50
2022-12-04T18:01:29.273Z,14.50
2022-12-04T18:04:04.371Z,14.00
2022-12-04T18:06:37.852Z,14.20
2022-12-04T18:09:08.591Z,15.00
2022-12-04T18:11:39.640Z,13.60
2022-12-04T18:14:16.136Z,15.03
2022-12-04T18:16:53.145Z,15.13
2022-12-04T18:19:25.528Z,15.17
2022-12-04T18:21:54.085Z,14.20
2022-12-04T18:24:24.904Z,14.17
2022-12-04T18:26:52.763Z,15.60
2022-12-04T18:29:24.827Z,13.87
2022-12-04T18:31:53.100Z,15.30
2022-12-04T18:34:21.904Z,15.80
2022-12-04T18:36:49.560Z,16.70
2022-12-04T18:39:22.268Z,16.63
2022-12-04T18:41:50.286Z,15.60
2022-12-04T18:44:18.291Z,15.20
2022-12-04T18:46:45.857Z,15.17
2022-12-04T18:49:13.305Z,15.40
2022-12-04T18:51:49.309Z,17.03
2022-12-04T18:54:23.336Z,16.17
2022-12-04T18:56:51.896Z,14.90
2022-12-04T18:59:26.765Z,15.37
2022-12-04T19:01:55.140Z,14.83
2022-12-04T19:04:24.873Z,15.00
2022-12-04T19:06:56.417Z,15.10
2022-12-04T19:10:02.037Z,14.80
2022-12-04T19:12:16.285Z,15.50
2022-12-04T19:14:43.144Z,15.10
2022-12-04T19:17:11.241Z,15.30
2022-12-04T19:19:38.221Z,14.43
2022-12-04T19:22:05.105Z,15.80
2022-12-04T19:24:32.484Z,14.37
2022-12-04T19:27:00.225Z,14.07
2022-12-04T19:29:30.457Z,15.67
2022-12-04T19:31:59.555Z,15.67
2022-12-04T19:34:27.086Z,13.57
2022-12-04T19:36:55.195Z,15.73
2022-12-04T19:39:22.346Z,16.33
2022-12-04T19:41:49.622Z,16.37
2022-12-04T19:44:47.221Z,15.90
2022-12-04T19:47:04.070Z,16.20
2022-12-04T19:49:31.138Z,12.93
2022-12-04T19:51:58.105Z,14.70
2022-12-04T19:54:25.867Z,14.70
2022-12-04T19:56:52.898Z,13.47
2022-12-04T19:59:20.788Z,16.00
2022-12-04T20:01:48.032Z,14.70
2022-12-04T20:04:15.506Z,14.67
2022-12-04T20:06:46.450Z,14.37
2022-12-04T20:09:21.153Z,15.70
2022-12-04T20:11:48.798Z,13.73
2022-12-04T20:14:16.007Z,15.43
2022-12-04T20:16:43.008Z,15.23
2022-12-04T20:19:17.241Z,15.03
2022-12-04T20:21:46.259Z,15.37
2022-12-04T20:24:16.520Z,14.87
2022-12-04T20:26:46.132Z,12.87
2022-12-04T20:29:18.948Z,15.97
2022-12-04T20:31:47.086Z,15.63
2022-12-04T20:34:18.704Z,13.07
2022-12-04T20:36:49.120Z,14.30
2022-12-04T20:39:19.270Z,15.80
2022-12-04T20:41:46.628Z,14.57
2022-12-04T20:44:19.177Z,15.80
2022-12-04T20:46:46.854Z,15.17
2022-12-04T20:49:22.105Z,14.40
2022-12-04T20:51:51.938Z,16.13
2022-12-04T20:54:22.709Z,15.90
2022-12-04T20:56:53.454Z,16.80
2022-12-04T20:59:23.659Z,15.20
2022-12-04T21:01:52.109Z,15.60
2022-12-04T21:04:20.434Z,15.03
2022-12-04T21:06:48.133Z,15.30
2022-12-04T21:09:21.432Z,16.20
2022-12-04T21:11:54.147Z,13.97
2022-12-04T21:14:48.326Z,15.17
2022-12-04T21:17:19.363Z,14.60
2022-12-04T21:19:50.237Z,16.70
2022-12-04T21:22:19.179Z,15.47
2022-12-04T21:24:46.115Z,16.00
2022-12-04T21:27:18.905Z,14.40
2022-12-04T21:29:48.618Z,15.20
2022-12-04T21:32:20.041Z,17.37
2022-12-04T21:34:48.135Z,16.47
2022-12-04T21:37:15.665Z,15.53
2022-12-04T21:39:43.403Z,15.23
2022-12-04T21:42:28.907Z,17.03
2022-12-04T21:44:57.271Z,17.03
2022-12-04T21:47:24.602Z,16.73
2022-12-04T21:49:51.506Z,16.37
2022-12-04T21:52:20.025Z,16.97
2022-12-04T21:54:54.002Z,15.10
2022-12-04T21:57:22.676Z,16.97
2022-12-04T21:59:52.329Z,16.67
2022-12-04T22:02:20.266Z,17.27
2022-12-04T22:04:47.533Z,15.90
2022-12-04T22:07:14.445Z,16.20
2022-12-04T22:09:41.740Z,16.33
2022-12-04T22:12:33.078Z,15.40
2022-12-04T22:14:55.498Z,16.80
2022-12-04T22:17:22.333Z,16.73
2022-12-04T22:19:49.176Z,16.73
2022-12-04T22:22:16.018Z,17.97
2022-12-04T22:24:42.877Z,17.43
2022-12-04T22:27:14.729Z,19.33
2022-12-04T22:29:50.203Z,19.43
2022-12-04T22:32:19.059Z,16.50
2022-12-04T22:34:49.098Z,18.70
2022-12-04T22:37:16.358Z,16.70
2022-12-04T22:39:43.218Z,16.57
2022-12-04T22:42:10.065Z,17.60
2022-12-04T22:44:36.962Z,17.67
2022-12-04T22:47:04.087Z,18.10
2022-12-04T22:49:30.969Z,17.60
2022-12-04T22:51:57.945Z,16.27
2022-12-04T22:54:24.791Z,16.80
2022-12-04T22:56:51.661Z,16.50
2022-12-04T22:59:18.516Z,20.50
2022-12-04T23:01:45.390Z,17.50
2022-12-04T23:04:12.271Z,19.10
2022-12-04T23:06:39.265Z,19.90
2022-12-04T23:09:15.330Z,18.77
2022-12-04T23:11:43.358Z,17.40
2022-12-04T23:14:15.291Z,17.70
2022-12-04T23:16:42.953Z,16.80
2022-12-04T23:19:15.043Z,17.50
2022-12-04T23:21:43.651Z,17.50
2022-12-04T23:24:12.111Z,19.83
2022-12-04T23:26:44.846Z,18.60
2022-12-04T23:29:44.400Z,18.80
2022-12-04T23:31:59.974Z,17.30
2022-12-04T23:34:27.274Z,17.07
2022-12-04T23:36:54.141Z,18.67
2022-12-04T23:39:21.042Z,17.40
2022-12-04T23:41:48.005Z,19.37
2022-12-04T23:44:14.866Z,18.57
2022-12-04T23:46:41.847Z,17.50
2022-12-04T23:49:09.050Z,22.50
2022-12-04T23:51:35.947Z,17.90
2022-12-04T23:54:02.840Z,16.63
2022-12-04T23:56:29.683Z,16.87
2022-12-04T23:58:58.049Z,16.80
